This is the latest recevied weather packets stored in our database for station/object JP3QZN-13. If no packets are shown the sender has not sent any weather packets the latest 10 day(s).
| Time | Temp. | Humidity | Pressure | Rain* | Wind** | Luminosity | Snow |
|---|---|---|---|---|---|---|---|
| 1777899600 | 16.11° C | 55% | 1019.2 hPa | 0 mm | - | - | - |
| 1777897799 | 16.67° C | 54% | 1018.8 hPa | 0 mm | - | - | - |
| 1777895999 | 16.67° C | 54% | 1018.1 hPa | 0 mm | - | - | - |
| 1777894198 | 17.22° C | 53% | 1017.3 hPa | 0 mm | - | - | - |
| 1777892427 | 17.78° C | 52% | 1016.5 hPa | 0 mm | - | - | - |
| 1777892398 | 17.78° C | 52% | 1016.4 hPa | 0 mm | - | - | - |
| 1777890626 | 17.78° C | 52% | 1015.5 hPa | 0 mm | - | - | - |
| 1777888825 | 18.33° C | 52% | 1014.6 hPa | 0 mm | - | - | - |
| 1777887025 | 18.89° C | 51% | 1013.7 hPa | 0 mm | - | - | - |
| 1777885224 | 19.44° C | 53% | 1013 hPa | 0 mm | - | - | - |
| 1777881623 | 19.44° C | 54% | 1011.6 hPa | 0 mm | - | - | - |
| 1777879822 | 20° C | 53% | 1011.1 hPa | 0 mm | - | - | - |
| 1777878021 | 20.56° C | 52% | 1010.8 hPa | 0 mm | - | - | - |
| 1777876220 | 21.67° C | 49% | 1010.5 hPa | 0 mm | - | - | - |
| 1777874419 | 22.22° C | 49% | 1010 hPa | 0 mm | - | - | - |
| 1777872618 | 22.78° C | 49% | 1009.6 hPa | 0 mm | - | - | - |
| 1777870817 | 21.67° C | 49% | 1009.6 hPa | 0 mm | - | - | - |
| 1777869017 | 21.67° C | 49% | 1009.5 hPa | 0 mm | - | - | - |
| 1777867216 | 21.67° C | 49% | 1009.3 hPa | 0 mm | - | - | - |
| 1777865415 | 22.22° C | 49% | 1008.9 hPa | 0 mm | - | - | - |
| 1777863614 | 23.33° C | 46% | 1008.9 hPa | 0 mm | - | - | - |
| 1777861813 | 24.44° C | 46% | 1009.2 hPa | 0 mm | - | - | - |
| 1777860012 | 23.33° C | 50% | 1009.2 hPa | 0 mm | - | - | - |
| 1777858211 | 22.78° C | 54% | 1009.2 hPa | 0 mm | - | - | - |
| 1777856411 | 22.22° C | 56% | 1009.2 hPa | 0 mm | - | - | - |
* Rain latest hour (hover to see other rain measurements)
** Current wind speed in m/s (hover to see current wind gust speed)